sensor_id;sensor_type;location;lat;lon;timestamp;P1;durP1;ratioP1;P2;durP2;ratioP2
5923;SDS011;2987;50.884;14.818;2023-07-16T00:00:03;2.90;;;2.67;;
5923;SDS011;2987;50.884;14.818;2023-07-16T00:02:31;4.30;;;2.90;;
5923;SDS011;2987;50.884;14.818;2023-07-16T00:04:57;5.97;;;2.67;;
5923;SDS011;2987;50.884;14.818;2023-07-16T00:07:23;4.80;;;2.80;;
5923;SDS011;2987;50.884;14.818;2023-07-16T00:09:49;5.47;;;3.10;;
5923;SDS011;2987;50.884;14.818;2023-07-16T00:12:15;5.20;;;2.90;;
5923;SDS011;2987;50.884;14.818;2023-07-16T00:14:41;3.50;;;2.97;;
5923;SDS011;2987;50.884;14.818;2023-07-16T00:17:07;8.20;;;3.27;;
5923;SDS011;2987;50.884;14.818;2023-07-16T00:19:33;4.07;;;2.67;;
5923;SDS011;2987;50.884;14.818;2023-07-16T00:21:59;6.10;;;3.03;;
5923;SDS011;2987;50.884;14.818;2023-07-16T00:24:26;4.17;;;2.80;;
5923;SDS011;2987;50.884;14.818;2023-07-16T00:26:52;3.63;;;2.60;;
5923;SDS011;2987;50.884;14.818;2023-07-16T00:29:18;9.70;;;2.90;;
5923;SDS011;2987;50.884;14.818;2023-07-16T00:31:45;5.83;;;3.00;;
5923;SDS011;2987;50.884;14.818;2023-07-16T00:34:12;6.03;;;2.80;;
5923;SDS011;2987;50.884;14.818;2023-07-16T00:36:39;5.23;;;2.90;;
5923;SDS011;2987;50.884;14.818;2023-07-16T00:39:05;5.47;;;3.10;;
5923;SDS011;2987;50.884;14.818;2023-07-16T00:41:31;4.37;;;3.30;;
5923;SDS011;2987;50.884;14.818;2023-07-16T00:43:57;8.07;;;3.40;;
5923;SDS011;2987;50.884;14.818;2023-07-16T00:46:23;7.00;;;3.30;;
5923;SDS011;2987;50.884;14.818;2023-07-16T00:48:50;8.13;;;3.60;;
5923;SDS011;2987;50.884;14.818;2023-07-16T00:51:16;4.67;;;3.20;;
5923;SDS011;2987;50.884;14.818;2023-07-16T00:53:43;7.37;;;3.37;;
5923;SDS011;2987;50.884;14.818;2023-07-16T00:56:10;5.77;;;3.40;;
5923;SDS011;2987;50.884;14.818;2023-07-16T00:58:40;4.40;;;3.53;;
5923;SDS011;2987;50.884;14.818;2023-07-16T01:01:07;11.13;;;3.67;;
5923;SDS011;2987;50.884;14.818;2023-07-16T01:03:33;6.00;;;3.33;;
5923;SDS011;2987;50.884;14.818;2023-07-16T01:06:10;7.67;;;3.63;;
5923;SDS011;2987;50.884;14.818;2023-07-16T01:08:40;10.63;;;3.67;;
5923;SDS011;2987;50.884;14.818;2023-07-16T01:11:10;4.83;;;3.50;;
5923;SDS011;2987;50.884;14.818;2023-07-16T01:13:37;4.57;;;3.77;;
5923;SDS011;2987;50.884;14.818;2023-07-16T01:16:04;4.80;;;3.90;;
5923;SDS011;2987;50.884;14.818;2023-07-16T01:20:56;7.90;;;3.80;;
5923;SDS011;2987;50.884;14.818;2023-07-16T01:23:26;3.93;;;3.50;;
5923;SDS011;2987;50.884;14.818;2023-07-16T01:26:26;4.03;;;3.60;;
5923;SDS011;2987;50.884;14.818;2023-07-16T01:36:50;7.90;;;3.30;;
5923;SDS011;2987;50.884;14.818;2023-07-16T01:39:16;12.77;;;3.53;;
5923;SDS011;2987;50.884;14.818;2023-07-16T01:41:43;9.63;;;3.40;;
5923;SDS011;2987;50.884;14.818;2023-07-16T01:44:09;8.30;;;3.10;;
5923;SDS011;2987;50.884;14.818;2023-07-16T01:46:35;12.43;;;3.63;;
5923;SDS011;2987;50.884;14.818;2023-07-16T01:49:01;8.17;;;3.03;;
5923;SDS011;2987;50.884;14.818;2023-07-16T01:51:27;5.63;;;3.23;;
5923;SDS011;2987;50.884;14.818;2023-07-16T01:53:53;9.07;;;3.00;;
5923;SDS011;2987;50.884;14.818;2023-07-16T01:56:19;5.37;;;2.90;;
5923;SDS011;2987;50.884;14.818;2023-07-16T01:58:47;10.00;;;3.07;;
5923;SDS011;2987;50.884;14.818;2023-07-16T02:01:13;6.00;;;2.70;;
5923;SDS011;2987;50.884;14.818;2023-07-16T02:03:39;7.40;;;2.57;;
5923;SDS011;2987;50.884;14.818;2023-07-16T02:06:05;7.17;;;3.03;;
5923;SDS011;2987;50.884;14.818;2023-07-16T02:08:32;5.80;;;3.00;;
5923;SDS011;2987;50.884;14.818;2023-07-16T02:10:58;4.63;;;2.77;;
5923;SDS011;2987;50.884;14.818;2023-07-16T02:13:25;5.70;;;2.80;;
5923;SDS011;2987;50.884;14.818;2023-07-16T02:15:52;7.40;;;2.83;;
5923;SDS011;2987;50.884;14.818;2023-07-16T02:18:18;9.97;;;3.30;;
5923;SDS011;2987;50.884;14.818;2023-07-16T02:20:44;4.47;;;2.90;;
5923;SDS011;2987;50.884;14.818;2023-07-16T02:23:10;4.07;;;2.97;;
5923;SDS011;2987;50.884;14.818;2023-07-16T02:25:36;9.47;;;3.17;;
5923;SDS011;2987;50.884;14.818;2023-07-16T02:30:29;4.30;;;2.80;;
5923;SDS011;2987;50.884;14.818;2023-07-16T02:32:55;5.47;;;3.30;;
5923;SDS011;2987;50.884;14.818;2023-07-16T02:35:21;7.13;;;2.90;;
5923;SDS011;2987;50.884;14.818;2023-07-16T02:37:47;3.77;;;3.00;;
5923;SDS011;2987;50.884;14.818;2023-07-16T02:40:13;5.87;;;2.87;;
5923;SDS011;2987;50.884;14.818;2023-07-16T02:42:41;5.33;;;2.97;;
5923;SDS011;2987;50.884;14.818;2023-07-16T02:45:07;4.70;;;3.13;;
5923;SDS011;2987;50.884;14.818;2023-07-16T02:47:34;5.20;;;3.37;;
5923;SDS011;2987;50.884;14.818;2023-07-16T02:50:01;4.47;;;3.20;;
5923;SDS011;2987;50.884;14.818;2023-07-16T02:52:28;7.50;;;2.90;;
5923;SDS011;2987;50.884;14.818;2023-07-16T02:54:55;5.97;;;3.17;;
5923;SDS011;2987;50.884;14.818;2023-07-16T02:57:21;7.23;;;3.30;;
5923;SDS011;2987;50.884;14.818;2023-07-16T02:59:48;6.13;;;3.23;;
5923;SDS011;2987;50.884;14.818;2023-07-16T03:02:14;4.10;;;2.97;;
5923;SDS011;2987;50.884;14.818;2023-07-16T03:04:40;4.40;;;3.07;;
5923;SDS011;2987;50.884;14.818;2023-07-16T03:07:07;9.97;;;3.30;;
5923;SDS011;2987;50.884;14.818;2023-07-16T03:09:32;5.97;;;3.40;;
5923;SDS011;2987;50.884;14.818;2023-07-16T03:11:59;6.63;;;3.00;;
5923;SDS011;2987;50.884;14.818;2023-07-16T03:14:25;4.20;;;3.27;;
5923;SDS011;2987;50.884;14.818;2023-07-16T03:16:51;3.43;;;2.73;;
5923;SDS011;2987;50.884;14.818;2023-07-16T03:19:17;3.13;;;2.80;;
5923;SDS011;2987;50.884;14.818;2023-07-16T03:21:43;4.53;;;3.10;;
5923;SDS011;2987;50.884;14.818;2023-07-16T03:24:09;6.37;;;3.43;;
5923;SDS011;2987;50.884;14.818;2023-07-16T03:29:01;5.77;;;3.03;;
5923;SDS011;2987;50.884;14.818;2023-07-16T03:31:28;3.47;;;3.17;;
5923;SDS011;2987;50.884;14.818;2023-07-16T03:33:55;3.73;;;2.93;;
5923;SDS011;2987;50.884;14.818;2023-07-16T03:36:23;3.80;;;3.07;;
5923;SDS011;2987;50.884;14.818;2023-07-16T03:38:49;5.83;;;2.83;;
5923;SDS011;2987;50.884;14.818;2023-07-16T03:41:17;5.47;;;2.53;;
5923;SDS011;2987;50.884;14.818;2023-07-16T03:43:43;3.00;;;2.47;;
5923;SDS011;2987;50.884;14.818;2023-07-16T03:46:16;2.33;;;2.20;;
5923;SDS011;2987;50.884;14.818;2023-07-16T03:48:42;2.70;;;2.40;;
5923;SDS011;2987;50.884;14.818;2023-07-16T03:51:08;3.27;;;2.33;;
5923;SDS011;2987;50.884;14.818;2023-07-16T03:53:34;3.27;;;2.30;;
5923;SDS011;2987;50.884;14.818;2023-07-16T03:56:00;5.63;;;2.47;;
5923;SDS011;2987;50.884;14.818;2023-07-16T03:58:26;2.43;;;2.17;;
5923;SDS011;2987;50.884;14.818;2023-07-16T04:00:54;3.87;;;2.00;;
5923;SDS011;2987;50.884;14.818;2023-07-16T04:03:22;2.13;;;1.93;;
5923;SDS011;2987;50.884;14.818;2023-07-16T04:05:48;4.10;;;2.07;;
5923;SDS011;2987;50.884;14.818;2023-07-16T04:08:14;3.30;;;1.90;;
5923;SDS011;2987;50.884;14.818;2023-07-16T04:10:39;2.03;;;1.93;;
5923;SDS011;2987;50.884;14.818;2023-07-16T04:13:05;4.90;;;1.97;;
5923;SDS011;2987;50.884;14.818;2023-07-16T04:15:31;2.13;;;1.80;;
5923;SDS011;2987;50.884;14.818;2023-07-16T04:17:57;3.43;;;1.80;;
5923;SDS011;2987;50.884;14.818;2023-07-16T04:20:23;2.20;;;2.00;;
5923;SDS011;2987;50.884;14.818;2023-07-16T04:22:50;1.47;;;1.37;;
5923;SDS011;2987;50.884;14.818;2023-07-16T04:25:16;2.07;;;1.70;;
5923;SDS011;2987;50.884;14.818;2023-07-16T04:27:42;3.73;;;1.70;;
5923;SDS011;2987;50.884;14.818;2023-07-16T04:30:09;3.60;;;1.50;;
5923;SDS011;2987;50.884;14.818;2023-07-16T04:32:35;1.80;;;1.60;;
5923;SDS011;2987;50.884;14.818;2023-07-16T04:35:02;1.97;;;1.30;;
5923;SDS011;2987;50.884;14.818;2023-07-16T04:37:28;2.33;;;1.40;;
5923;SDS011;2987;50.884;14.818;2023-07-16T04:39:54;2.90;;;1.67;;
5923;SDS011;2987;50.884;14.818;2023-07-16T04:42:20;1.20;;;1.10;;
5923;SDS011;2987;50.884;14.818;2023-07-16T04:44:46;1.40;;;1.30;;
5923;SDS011;2987;50.884;14.818;2023-07-16T04:47:12;1.27;;;1.17;;
5923;SDS011;2987;50.884;14.818;2023-07-16T04:49:38;2.40;;;1.33;;
5923;SDS011;2987;50.884;14.818;2023-07-16T04:52:04;5.33;;;1.80;;
5923;SDS011;2987;50.884;14.818;2023-07-16T04:54:35;1.70;;;1.60;;
5923;SDS011;2987;50.884;14.818;2023-07-16T04:57:02;2.00;;;1.30;;
5923;SDS011;2987;50.884;14.818;2023-07-16T04:59:29;2.17;;;1.40;;
5923;SDS011;2987;50.884;14.818;2023-07-16T05:01:55;1.03;;;1.03;;
5923;SDS011;2987;50.884;14.818;2023-07-16T05:04:21;4.30;;;1.60;;
5923;SDS011;2987;50.884;14.818;2023-07-16T05:06:47;2.00;;;1.47;;
5923;SDS011;2987;50.884;14.818;2023-07-16T05:09:13;1.50;;;1.40;;
5923;SDS011;2987;50.884;14.818;2023-07-16T05:11:38;1.50;;;1.40;;
5923;SDS011;2987;50.884;14.818;2023-07-16T05:14:04;1.37;;;1.27;;
5923;SDS011;2987;50.884;14.818;2023-07-16T05:16:30;1.93;;;1.40;;
5923;SDS011;2987;50.884;14.818;2023-07-16T05:18:56;1.67;;;1.43;;
5923;SDS011;2987;50.884;14.818;2023-07-16T05:21:22;1.70;;;1.60;;
5923;SDS011;2987;50.884;14.818;2023-07-16T05:23:48;1.50;;;1.33;;
5923;SDS011;2987;50.884;14.818;2023-07-16T05:26:14;2.20;;;1.60;;
5923;SDS011;2987;50.884;14.818;2023-07-16T05:28:40;3.80;;;1.50;;
5923;SDS011;2987;50.884;14.818;2023-07-16T05:31:06;1.83;;;1.50;;
5923;SDS011;2987;50.884;14.818;2023-07-16T05:33:32;2.50;;;1.83;;
5923;SDS011;2987;50.884;14.818;2023-07-16T05:35:58;3.20;;;1.87;;
5923;SDS011;2987;50.884;14.818;2023-07-16T05:38:24;3.40;;;1.73;;
5923;SDS011;2987;50.884;14.818;2023-07-16T05:40:50;2.50;;;1.70;;
5923;SDS011;2987;50.884;14.818;2023-07-16T05:43:16;5.93;;;2.10;;
5923;SDS011;2987;50.884;14.818;2023-07-16T05:45:42;6.30;;;2.30;;
5923;SDS011;2987;50.884;14.818;2023-07-16T05:48:08;1.73;;;1.53;;
5923;SDS011;2987;50.884;14.818;2023-07-16T05:50:34;2.20;;;2.00;;
5923;SDS011;2987;50.884;14.818;2023-07-16T05:53:00;2.80;;;2.13;;
5923;SDS011;2987;50.884;14.818;2023-07-16T05:55:26;4.30;;;2.07;;
5923;SDS011;2987;50.884;14.818;2023-07-16T05:57:52;4.10;;;2.60;;
5923;SDS011;2987;50.884;14.818;2023-07-16T06:00:19;1.90;;;1.67;;
5923;SDS011;2987;50.884;14.818;2023-07-16T06:02:45;3.80;;;1.80;;
5923;SDS011;2987;50.884;14.818;2023-07-16T06:07:36;6.83;;;2.30;;
5923;SDS011;2987;50.884;14.818;2023-07-16T06:10:02;3.30;;;2.30;;
5923;SDS011;2987;50.884;14.818;2023-07-16T06:12:29;5.37;;;2.20;;
5923;SDS011;2987;50.884;14.818;2023-07-16T06:14:55;3.33;;;1.97;;
5923;SDS011;2987;50.884;14.818;2023-07-16T06:17:21;4.43;;;2.37;;
5923;SDS011;2987;50.884;14.818;2023-07-16T06:19:47;2.33;;;2.13;;
5923;SDS011;2987;50.884;14.818;2023-07-16T06:22:15;3.53;;;2.20;;
5923;SDS011;2987;50.884;14.818;2023-07-16T06:24:41;4.27;;;2.17;;
5923;SDS011;2987;50.884;14.818;2023-07-16T06:27:07;3.13;;;2.07;;
5923;SDS011;2987;50.884;14.818;2023-07-16T06:29:33;2.83;;;2.10;;
5923;SDS011;2987;50.884;14.818;2023-07-16T06:31:59;2.20;;;2.00;;
5923;SDS011;2987;50.884;14.818;2023-07-16T06:34:25;4.50;;;2.30;;
5923;SDS011;2987;50.884;14.818;2023-07-16T06:36:52;2.73;;;2.20;;
5923;SDS011;2987;50.884;14.818;2023-07-16T06:39:18;3.20;;;2.20;;
5923;SDS011;2987;50.884;14.818;2023-07-16T06:41:45;2.33;;;2.03;;
5923;SDS011;2987;50.884;14.818;2023-07-16T06:44:13;3.40;;;2.60;;
5923;SDS011;2987;50.884;14.818;2023-07-16T06:46:39;2.50;;;2.30;;
5923;SDS011;2987;50.884;14.818;2023-07-16T06:49:05;2.30;;;2.10;;
5923;SDS011;2987;50.884;14.818;2023-07-16T06:51:33;2.33;;;2.10;;
5923;SDS011;2987;50.884;14.818;2023-07-16T06:53:59;2.03;;;1.87;;
5923;SDS011;2987;50.884;14.818;2023-07-16T06:56:25;2.07;;;1.87;;
5923;SDS011;2987;50.884;14.818;2023-07-16T06:58:52;3.00;;;2.37;;
5923;SDS011;2987;50.884;14.818;2023-07-16T07:01:18;3.00;;;1.90;;
5923;SDS011;2987;50.884;14.818;2023-07-16T07:03:44;2.20;;;1.90;;
5923;SDS011;2987;50.884;14.818;2023-07-16T07:06:10;2.70;;;1.97;;
5923;SDS011;2987;50.884;14.818;2023-07-16T07:08:36;2.63;;;2.40;;
5923;SDS011;2987;50.884;14.818;2023-07-16T07:11:03;2.17;;;1.83;;
5923;SDS011;2987;50.884;14.818;2023-07-16T07:13:30;1.77;;;1.67;;
5923;SDS011;2987;50.884;14.818;2023-07-16T07:15:56;3.77;;;2.37;;
5923;SDS011;2987;50.884;14.818;2023-07-16T07:18:22;2.93;;;2.03;;
5923;SDS011;2987;50.884;14.818;2023-07-16T07:20:48;1.83;;;1.73;;
5923;SDS011;2987;50.884;14.818;2023-07-16T07:23:15;3.20;;;2.30;;
5923;SDS011;2987;50.884;14.818;2023-07-16T07:25:41;3.23;;;2.00;;
5923;SDS011;2987;50.884;14.818;2023-07-16T07:28:07;2.37;;;2.20;;
5923;SDS011;2987;50.884;14.818;2023-07-16T07:30:33;2.50;;;2.07;;
5923;SDS011;2987;50.884;14.818;2023-07-16T07:32:59;2.00;;;1.80;;
5923;SDS011;2987;50.884;14.818;2023-07-16T07:35:25;2.37;;;1.80;;
5923;SDS011;2987;50.884;14.818;2023-07-16T07:37:51;2.20;;;1.90;;
5923;SDS011;2987;50.884;14.818;2023-07-16T07:40:18;2.50;;;2.30;;
5923;SDS011;2987;50.884;14.818;2023-07-16T07:42:45;2.30;;;2.10;;
5923;SDS011;2987;50.884;14.818;2023-07-16T07:45:11;4.33;;;2.13;;
5923;SDS011;2987;50.884;14.818;2023-07-16T07:47:37;2.50;;;2.17;;
5923;SDS011;2987;50.884;14.818;2023-07-16T07:50:03;2.20;;;1.90;;
5923;SDS011;2987;50.884;14.818;2023-07-16T07:52:29;2.23;;;2.00;;
5923;SDS011;2987;50.884;14.818;2023-07-16T07:54:55;3.00;;;2.10;;
5923;SDS011;2987;50.884;14.818;2023-07-16T07:57:21;2.27;;;1.90;;
5923;SDS011;2987;50.884;14.818;2023-07-16T07:59:47;5.33;;;2.30;;
5923;SDS011;2987;50.884;14.818;2023-07-16T08:02:13;3.57;;;2.33;;
5923;SDS011;2987;50.884;14.818;2023-07-16T08:04:39;3.03;;;2.00;;
5923;SDS011;2987;50.884;14.818;2023-07-16T08:09:47;2.87;;;2.20;;
5923;SDS011;2987;50.884;14.818;2023-07-16T08:12:13;3.40;;;2.03;;
5923;SDS011;2987;50.884;14.818;2023-07-16T08:14:40;2.30;;;2.10;;
5923;SDS011;2987;50.884;14.818;2023-07-16T08:17:07;2.30;;;2.10;;
5923;SDS011;2987;50.884;14.818;2023-07-16T08:19:33;3.20;;;2.10;;
5923;SDS011;2987;50.884;14.818;2023-07-16T08:21:59;2.53;;;2.30;;
5923;SDS011;2987;50.884;14.818;2023-07-16T08:24:25;2.50;;;2.30;;
5923;SDS011;2987;50.884;14.818;2023-07-16T08:26:51;2.30;;;2.20;;
5923;SDS011;2987;50.884;14.818;2023-07-16T08:29:17;2.70;;;2.40;;
5923;SDS011;2987;50.884;14.818;2023-07-16T08:31:43;3.20;;;3.00;;
5923;SDS011;2987;50.884;14.818;2023-07-16T08:34:09;3.40;;;3.10;;
5923;SDS011;2987;50.884;14.818;2023-07-16T08:36:36;4.73;;;3.40;;
5923;SDS011;2987;50.884;14.818;2023-07-16T08:39:03;4.40;;;3.70;;
5923;SDS011;2987;50.884;14.818;2023-07-16T08:41:31;4.77;;;4.37;;
5923;SDS011;2987;50.884;14.818;2023-07-16T08:43:57;5.30;;;4.90;;
5923;SDS011;2987;50.884;14.818;2023-07-16T08:46:23;5.87;;;5.47;;
5923;SDS011;2987;50.884;14.818;2023-07-16T08:48:50;5.17;;;4.67;;
5923;SDS011;2987;50.884;14.818;2023-07-16T08:51:18;4.83;;;4.40;;
5923;SDS011;2987;50.884;14.818;2023-07-16T08:53:46;4.70;;;4.30;;
5923;SDS011;2987;50.884;14.818;2023-07-16T08:56:12;4.47;;;4.17;;
5923;SDS011;2987;50.884;14.818;2023-07-16T08:58:39;4.23;;;3.83;;
5923;SDS011;2987;50.884;14.818;2023-07-16T09:01:08;3.90;;;3.60;;
5923;SDS011;2987;50.884;14.818;2023-07-16T09:03:35;4.10;;;3.80;;
5923;SDS011;2987;50.884;14.818;2023-07-16T09:06:02;4.57;;;4.17;;
5923;SDS011;2987;50.884;14.818;2023-07-16T09:08:29;4.70;;;3.80;;
5923;SDS011;2987;50.884;14.818;2023-07-16T09:10:56;3.93;;;3.53;;
5923;SDS011;2987;50.884;14.818;2023-07-16T09:13:23;4.07;;;3.67;;
5923;SDS011;2987;50.884;14.818;2023-07-16T09:15:54;4.27;;;3.40;;
5923;SDS011;2987;50.884;14.818;2023-07-16T09:18:22;4.00;;;3.60;;
5923;SDS011;2987;50.884;14.818;2023-07-16T09:20:57;4.23;;;3.80;;
5923;SDS011;2987;50.884;14.818;2023-07-16T09:23:26;4.20;;;3.30;;
5923;SDS011;2987;50.884;14.818;2023-07-16T09:25:53;4.87;;;3.70;;
5923;SDS011;2987;50.884;14.818;2023-07-16T09:28:19;4.20;;;3.80;;
5923;SDS011;2987;50.884;14.818;2023-07-16T09:30:46;3.60;;;3.30;;
5923;SDS011;2987;50.884;14.818;2023-07-16T09:33:14;6.70;;;3.30;;
5923;SDS011;2987;50.884;14.818;2023-07-16T09:35:44;4.17;;;3.60;;
5923;SDS011;2987;50.884;14.818;2023-07-16T09:40:36;4.47;;;4.07;;
5923;SDS011;2987;50.884;14.818;2023-07-16T09:43:03;4.10;;;3.70;;
5923;SDS011;2987;50.884;14.818;2023-07-16T09:45:32;3.83;;;3.53;;
5923;SDS011;2987;50.884;14.818;2023-07-16T09:47:58;4.33;;;3.70;;
5923;SDS011;2987;50.884;14.818;2023-07-16T09:50:24;4.70;;;3.37;;
5923;SDS011;2987;50.884;14.818;2023-07-16T09:52:55;4.73;;;3.63;;
5923;SDS011;2987;50.884;14.818;2023-07-16T09:55:22;4.23;;;3.80;;
5923;SDS011;2987;50.884;14.818;2023-07-16T09:57:50;3.60;;;3.30;;
5923;SDS011;2987;50.884;14.818;2023-07-16T10:00:18;4.47;;;3.43;;
5923;SDS011;2987;50.884;14.818;2023-07-16T10:02:46;4.33;;;3.30;;
5923;SDS011;2987;50.884;14.818;2023-07-16T10:05:13;4.43;;;3.30;;
5923;SDS011;2987;50.884;14.818;2023-07-16T10:07:41;3.67;;;3.37;;
5923;SDS011;2987;50.884;14.818;2023-07-16T10:10:09;2.90;;;2.70;;
5923;SDS011;2987;50.884;14.818;2023-07-16T10:12:37;3.00;;;2.80;;
5923;SDS011;2987;50.884;14.818;2023-07-16T10:15:03;3.20;;;2.90;;
5923;SDS011;2987;50.884;14.818;2023-07-16T10:17:31;3.23;;;3.03;;
5923;SDS011;2987;50.884;14.818;2023-07-16T10:20:06;3.50;;;3.03;;
5923;SDS011;2987;50.884;14.818;2023-07-16T10:22:37;4.00;;;3.00;;
5923;SDS011;2987;50.884;14.818;2023-07-16T10:25:08;3.47;;;3.10;;
5923;SDS011;2987;50.884;14.818;2023-07-16T10:27:36;4.10;;;3.00;;
5923;SDS011;2987;50.884;14.818;2023-07-16T10:30:03;3.77;;;2.93;;
5923;SDS011;2987;50.884;14.818;2023-07-16T10:32:31;3.20;;;2.70;;
5923;SDS011;2987;50.884;14.818;2023-07-16T10:34:58;3.43;;;2.90;;
5923;SDS011;2987;50.884;14.818;2023-07-16T10:37:24;2.87;;;2.50;;
5923;SDS011;2987;50.884;14.818;2023-07-16T10:39:52;4.87;;;2.83;;
5923;SDS011;2987;50.884;14.818;2023-07-16T10:42:20;3.07;;;2.87;;
5923;SDS011;2987;50.884;14.818;2023-07-16T10:44:49;3.00;;;2.80;;
5923;SDS011;2987;50.884;14.818;2023-07-16T10:47:23;2.87;;;2.67;;
5923;SDS011;2987;50.884;14.818;2023-07-16T10:49:54;3.40;;;3.10;;
5923;SDS011;2987;50.884;14.818;2023-07-16T10:52:21;3.27;;;3.00;;
5923;SDS011;2987;50.884;14.818;2023-07-16T10:54:48;4.30;;;3.37;;
5923;SDS011;2987;50.884;14.818;2023-07-16T10:57:15;3.97;;;3.30;;
5923;SDS011;2987;50.884;14.818;2023-07-16T10:59:42;4.13;;;3.73;;
5923;SDS011;2987;50.884;14.818;2023-07-16T11:02:10;3.77;;;3.47;;
5923;SDS011;2987;50.884;14.818;2023-07-16T11:04:38;3.97;;;3.67;;
5923;SDS011;2987;50.884;14.818;2023-07-16T11:07:07;4.20;;;3.90;;
5923;SDS011;2987;50.884;14.818;2023-07-16T11:09:34;4.73;;;3.87;;
5923;SDS011;2987;50.884;14.818;2023-07-16T11:12:08;4.73;;;4.20;;
5923;SDS011;2987;50.884;14.818;2023-07-16T11:14:35;4.50;;;4.10;;
5923;SDS011;2987;50.884;14.818;2023-07-16T11:17:08;4.60;;;4.20;;
5923;SDS011;2987;50.884;14.818;2023-07-16T11:19:36;5.27;;;4.47;;
5923;SDS011;2987;50.884;14.818;2023-07-16T11:22:03;5.60;;;4.57;;
5923;SDS011;2987;50.884;14.818;2023-07-16T11:24:39;4.87;;;4.47;;
5923;SDS011;2987;50.884;14.818;2023-07-16T11:32:37;3.93;;;3.07;;
5923;SDS011;2987;50.884;14.818;2023-07-16T11:35:15;3.83;;;2.93;;
5923;SDS011;2987;50.884;14.818;2023-07-16T11:40:09;3.07;;;2.87;;
5923;SDS011;2987;50.884;14.818;2023-07-16T11:42:38;3.17;;;2.90;;
5923;SDS011;2987;50.884;14.818;2023-07-16T11:45:05;6.13;;;2.63;;
5923;SDS011;2987;50.884;14.818;2023-07-16T11:47:42;4.60;;;2.63;;
5923;SDS011;2987;50.884;14.818;2023-07-16T11:50:08;2.90;;;2.60;;
5923;SDS011;2987;50.884;14.818;2023-07-16T11:52:34;2.80;;;2.40;;
5923;SDS011;2987;50.884;14.818;2023-07-16T11:55:00;4.33;;;2.57;;
5923;SDS011;2987;50.884;14.818;2023-07-16T11:57:29;3.30;;;2.80;;
5923;SDS011;2987;50.884;14.818;2023-07-16T11:59:55;3.10;;;2.80;;
5923;SDS011;2987;50.884;14.818;2023-07-16T12:02:22;3.33;;;2.70;;
5923;SDS011;2987;50.884;14.818;2023-07-16T12:04:50;2.60;;;2.30;;
5923;SDS011;2987;50.884;14.818;2023-07-16T12:07:29;2.90;;;2.60;;
5923;SDS011;2987;50.884;14.818;2023-07-16T12:09:58;4.60;;;2.43;;
5923;SDS011;2987;50.884;14.818;2023-07-16T12:12:24;2.67;;;2.47;;
5923;SDS011;2987;50.884;14.818;2023-07-16T12:14:51;2.53;;;2.07;;
5923;SDS011;2987;50.884;14.818;2023-07-16T12:17:17;4.40;;;2.23;;
5923;SDS011;2987;50.884;14.818;2023-07-16T12:19:43;2.43;;;2.23;;
5923;SDS011;2987;50.884;14.818;2023-07-16T12:22:09;3.47;;;2.23;;
5923;SDS011;2987;50.884;14.818;2023-07-16T12:24:35;2.60;;;2.40;;
5923;SDS011;2987;50.884;14.818;2023-07-16T12:27:01;3.40;;;2.30;;
5923;SDS011;2987;50.884;14.818;2023-07-16T12:29:27;2.47;;;2.27;;
5923;SDS011;2987;50.884;14.818;2023-07-16T12:31:53;3.50;;;2.23;;
5923;SDS011;2987;50.884;14.818;2023-07-16T12:34:19;2.50;;;2.00;;
5923;SDS011;2987;50.884;14.818;2023-07-16T12:36:45;2.70;;;2.00;;
5923;SDS011;2987;50.884;14.818;2023-07-16T12:39:11;2.70;;;2.50;;
5923;SDS011;2987;50.884;14.818;2023-07-16T12:41:37;2.60;;;2.30;;
5923;SDS011;2987;50.884;14.818;2023-07-16T12:44:03;7.60;;;2.40;;
5923;SDS011;2987;50.884;14.818;2023-07-16T12:46:29;6.57;;;2.73;;
5923;SDS011;2987;50.884;14.818;2023-07-16T12:48:55;2.60;;;2.40;;
5923;SDS011;2987;50.884;14.818;2023-07-16T12:51:21;3.40;;;2.60;;
5923;SDS011;2987;50.884;14.818;2023-07-16T12:53:47;5.60;;;2.80;;
5923;SDS011;2987;50.884;14.818;2023-07-16T12:56:13;5.33;;;2.47;;
5923;SDS011;2987;50.884;14.818;2023-07-16T12:58:39;2.50;;;2.30;;
5923;SDS011;2987;50.884;14.818;2023-07-16T13:01:05;2.87;;;2.60;;
5923;SDS011;2987;50.884;14.818;2023-07-16T13:03:31;2.40;;;2.20;;
5923;SDS011;2987;50.884;14.818;2023-07-16T13:05:57;4.37;;;2.60;;
5923;SDS011;2987;50.884;14.818;2023-07-16T13:08:24;2.60;;;2.40;;
5923;SDS011;2987;50.884;14.818;2023-07-16T13:10:50;2.60;;;2.40;;
5923;SDS011;2987;50.884;14.818;2023-07-16T13:15:42;2.87;;;2.40;;
5923;SDS011;2987;50.884;14.818;2023-07-16T13:18:09;4.40;;;2.73;;
5923;SDS011;2987;50.884;14.818;2023-07-16T13:20:37;2.93;;;2.73;;
5923;SDS011;2987;50.884;14.818;2023-07-16T13:23:03;3.10;;;2.80;;
5923;SDS011;2987;50.884;14.818;2023-07-16T13:25:30;3.00;;;2.70;;
5923;SDS011;2987;50.884;14.818;2023-07-16T13:27:56;2.70;;;2.50;;
5923;SDS011;2987;50.884;14.818;2023-07-16T13:30:22;5.37;;;2.60;;
5923;SDS011;2987;50.884;14.818;2023-07-16T13:32:48;4.03;;;2.27;;
5923;SDS011;2987;50.884;14.818;2023-07-16T13:35:15;5.10;;;2.67;;
5923;SDS011;2987;50.884;14.818;2023-07-16T13:37:41;2.53;;;2.33;;
5923;SDS011;2987;50.884;14.818;2023-07-16T13:40:07;2.53;;;2.33;;
5923;SDS011;2987;50.884;14.818;2023-07-16T13:42:34;2.03;;;1.93;;
5923;SDS011;2987;50.884;14.818;2023-07-16T13:45:00;3.33;;;2.20;;
5923;SDS011;2987;50.884;14.818;2023-07-16T13:47:25;5.03;;;2.47;;
5923;SDS011;2987;50.884;14.818;2023-07-16T13:49:51;2.87;;;2.53;;
5923;SDS011;2987;50.884;14.818;2023-07-16T13:52:19;3.37;;;2.03;;
5923;SDS011;2987;50.884;14.818;2023-07-16T13:54:44;2.20;;;2.00;;
5923;SDS011;2987;50.884;14.818;2023-07-16T13:57:10;4.43;;;2.30;;
5923;SDS011;2987;50.884;14.818;2023-07-16T13:59:36;3.00;;;2.20;;
5923;SDS011;2987;50.884;14.818;2023-07-16T14:02:02;2.87;;;1.93;;
5923;SDS011;2987;50.884;14.818;2023-07-16T14:04:30;7.10;;;2.17;;
5923;SDS011;2987;50.884;14.818;2023-07-16T14:06:56;3.20;;;2.00;;
5923;SDS011;2987;50.884;14.818;2023-07-16T14:09:22;2.10;;;1.97;;
5923;SDS011;2987;50.884;14.818;2023-07-16T14:11:48;3.27;;;2.17;;
5923;SDS011;2987;50.884;14.818;2023-07-16T14:14:15;3.83;;;2.00;;
5923;SDS011;2987;50.884;14.818;2023-07-16T14:16:41;2.37;;;2.00;;
5923;SDS011;2987;50.884;14.818;2023-07-16T14:19:08;3.80;;;2.00;;
5923;SDS011;2987;50.884;14.818;2023-07-16T14:21:37;2.83;;;2.00;;
5923;SDS011;2987;50.884;14.818;2023-07-16T14:24:04;3.10;;;1.83;;
5923;SDS011;2987;50.884;14.818;2023-07-16T14:26:30;2.50;;;2.10;;
5923;SDS011;2987;50.884;14.818;2023-07-16T14:28:56;2.73;;;1.80;;
5923;SDS011;2987;50.884;14.818;2023-07-16T14:31:22;5.43;;;2.00;;
5923;SDS011;2987;50.884;14.818;2023-07-16T14:33:48;3.27;;;2.10;;
5923;SDS011;2987;50.884;14.818;2023-07-16T14:36:14;2.30;;;2.20;;
5923;SDS011;2987;50.884;14.818;2023-07-16T14:38:40;4.90;;;2.10;;
5923;SDS011;2987;50.884;14.818;2023-07-16T14:41:06;2.73;;;2.10;;
5923;SDS011;2987;50.884;14.818;2023-07-16T14:43:34;4.10;;;2.27;;
5923;SDS011;2987;50.884;14.818;2023-07-16T14:45:59;2.30;;;2.10;;
5923;SDS011;2987;50.884;14.818;2023-07-16T14:48:25;3.00;;;1.97;;
5923;SDS011;2987;50.884;14.818;2023-07-16T14:50:53;5.40;;;2.00;;
5923;SDS011;2987;50.884;14.818;2023-07-16T14:53:19;3.20;;;2.07;;
5923;SDS011;2987;50.884;14.818;2023-07-16T14:55:48;2.67;;;1.73;;
5923;SDS011;2987;50.884;14.818;2023-07-16T14:58:17;2.13;;;1.80;;
5923;SDS011;2987;50.884;14.818;2023-07-16T15:00:46;1.83;;;1.73;;
5923;SDS011;2987;50.884;14.818;2023-07-16T15:03:12;2.27;;;1.73;;
5923;SDS011;2987;50.884;14.818;2023-07-16T15:05:38;3.30;;;1.83;;
5923;SDS011;2987;50.884;14.818;2023-07-16T15:08:04;3.13;;;2.03;;
5923;SDS011;2987;50.884;14.818;2023-07-16T15:10:31;3.53;;;1.70;;
5923;SDS011;2987;50.884;14.818;2023-07-16T15:12:57;5.20;;;1.90;;
5923;SDS011;2987;50.884;14.818;2023-07-16T15:15:24;2.77;;;1.80;;
5923;SDS011;2987;50.884;14.818;2023-07-16T15:17:50;3.17;;;2.00;;
5923;SDS011;2987;50.884;14.818;2023-07-16T15:20:17;3.80;;;2.00;;
5923;SDS011;2987;50.884;14.818;2023-07-16T15:22:43;2.10;;;1.80;;
5923;SDS011;2987;50.884;14.818;2023-07-16T15:25:09;2.70;;;1.77;;
5923;SDS011;2987;50.884;14.818;2023-07-16T15:27:36;2.97;;;2.10;;
5923;SDS011;2987;50.884;14.818;2023-07-16T15:30:02;3.80;;;2.07;;